createdAt,value
2022-11-13T00:00:17.685Z,0.00
2022-11-13T00:01:17.708Z,0.00
2022-11-13T00:02:17.707Z,0.00
2022-11-13T00:03:17.654Z,0.00
2022-11-13T00:04:17.654Z,0.00
2022-11-13T00:05:17.666Z,0.00
2022-11-13T00:06:17.623Z,0.00
2022-11-13T00:07:17.701Z,0.00
2022-11-13T00:08:17.629Z,0.00
2022-11-13T00:09:17.600Z,0.00
2022-11-13T00:10:17.583Z,0.00
2022-11-13T00:11:17.565Z,0.00
2022-11-13T00:12:17.565Z,0.00
2022-11-13T00:13:17.551Z,0.00
2022-11-13T00:14:17.559Z,0.00
2022-11-13T00:15:17.533Z,0.00
2022-11-13T00:16:17.517Z,0.00
2022-11-13T00:17:17.517Z,0.00
2022-11-13T00:18:17.506Z,0.00
2022-11-13T00:19:17.490Z,0.00
2022-11-13T00:20:17.478Z,0.00
2022-11-13T00:21:17.457Z,0.00
2022-11-13T00:22:17.454Z,0.00
2022-11-13T00:23:17.444Z,0.00
2022-11-13T00:24:17.445Z,0.00
2022-11-13T00:25:17.479Z,0.00
2022-11-13T00:26:17.410Z,0.00
2022-11-13T00:27:17.394Z,0.00
2022-11-13T00:28:17.395Z,0.00
2022-11-13T00:29:23.410Z,0.00
2022-11-13T00:30:19.454Z,0.00
2022-11-13T00:31:17.355Z,0.00
2022-11-13T00:32:18.011Z,0.00
2022-11-13T00:33:38.275Z,0.00
2022-11-13T00:34:45.976Z,0.00
2022-11-13T00:35:17.346Z,0.00
2022-11-13T00:36:17.338Z,0.00
2022-11-13T00:37:17.291Z,0.00
2022-11-13T00:38:17.308Z,0.00
2022-11-13T00:39:17.283Z,0.00
2022-11-13T00:40:17.288Z,0.00
2022-11-13T00:41:17.249Z,0.00
2022-11-13T00:42:17.259Z,0.00
2022-11-13T00:43:17.267Z,0.00
2022-11-13T00:44:17.248Z,0.00
2022-11-13T00:45:17.273Z,0.00
2022-11-13T00:46:17.222Z,0.00
2022-11-13T00:47:17.187Z,0.00
2022-11-13T00:48:17.184Z,0.00
2022-11-13T00:49:17.176Z,0.00
2022-11-13T00:50:17.157Z,0.00
2022-11-13T00:51:17.160Z,0.00
2022-11-13T00:52:17.164Z,0.00
2022-11-13T00:53:18.296Z,0.00
2022-11-13T00:54:17.123Z,0.00
2022-11-13T00:55:17.119Z,0.00
2022-11-13T00:56:17.120Z,0.00
2022-11-13T00:57:17.096Z,0.00
2022-11-13T00:58:17.082Z,0.00
2022-11-13T00:59:17.097Z,0.00
2022-11-13T01:00:17.065Z,0.00
2022-11-13T01:01:17.136Z,0.00
2022-11-13T01:02:17.059Z,0.00
2022-11-13T01:03:17.052Z,0.00
2022-11-13T01:04:17.052Z,0.00
2022-11-13T01:05:16.993Z,0.00
2022-11-13T01:06:16.994Z,0.00
2022-11-13T01:07:17.054Z,0.00
2022-11-13T01:08:17.002Z,0.00
2022-11-13T01:09:16.966Z,0.00
2022-11-13T01:10:16.950Z,0.00
2022-11-13T01:11:16.934Z,0.00
2022-11-13T01:12:16.945Z,0.00
2022-11-13T01:13:16.964Z,0.00
2022-11-13T01:14:16.974Z,0.00
2022-11-13T01:15:16.905Z,0.00
2022-11-13T01:16:16.898Z,0.00
2022-11-13T01:17:16.877Z,0.00
2022-11-13T01:18:16.885Z,0.00
2022-11-13T01:19:16.902Z,0.00
2022-11-13T01:20:16.917Z,0.00
2022-11-13T01:21:16.962Z,0.00
2022-11-13T01:22:16.834Z,0.00
2022-11-13T01:23:16.812Z,0.00
2022-11-13T01:24:16.841Z,0.00
2022-11-13T01:25:16.788Z,0.00
2022-11-13T01:26:16.785Z,0.00
2022-11-13T01:27:16.872Z,0.00
2022-11-13T01:28:16.864Z,0.00
2022-11-13T01:29:16.761Z,0.00
2022-11-13T01:30:16.782Z,0.00
2022-11-13T01:31:16.792Z,0.00
2022-11-13T01:32:16.723Z,0.00
2022-11-13T01:33:16.798Z,0.00
2022-11-13T01:34:16.741Z,0.00
2022-11-13T01:35:16.699Z,0.00
2022-11-13T01:36:16.691Z,0.00
2022-11-13T01:37:16.716Z,0.00
2022-11-13T01:38:16.827Z,0.00
2022-11-13T01:39:16.736Z,0.00
2022-11-13T01:40:16.673Z,0.00
2022-11-13T01:41:21.867Z,0.00
2022-11-13T01:42:16.662Z,0.00
2022-11-13T01:43:16.656Z,0.00
2022-11-13T01:44:16.629Z,0.00
2022-11-13T01:45:16.589Z,0.00
2022-11-13T01:46:16.570Z,0.00
2022-11-13T01:47:16.576Z,0.00
2022-11-13T01:48:16.584Z,0.00
2022-11-13T01:49:16.588Z,0.00
2022-11-13T01:50:16.598Z,0.00
2022-11-13T01:51:16.547Z,0.00
2022-11-13T01:52:16.556Z,0.00
2022-11-13T01:53:16.503Z,0.00
2022-11-13T01:54:16.510Z,0.00
2022-11-13T01:55:16.536Z,0.00
2022-11-13T01:56:16.456Z,0.00
2022-11-13T01:57:16.541Z,0.00
2022-11-13T01:58:16.467Z,0.00
2022-11-13T01:59:16.475Z,0.00
2022-11-13T02:00:16.415Z,0.00
2022-11-13T02:01:16.454Z,0.00
2022-11-13T02:02:16.474Z,0.00
2022-11-13T02:03:16.456Z,0.00
2022-11-13T02:04:16.417Z,0.00
2022-11-13T02:05:16.495Z,0.00
2022-11-13T02:06:16.436Z,0.00
2022-11-13T02:07:16.415Z,0.00
2022-11-13T02:08:16.339Z,0.00
2022-11-13T02:09:16.336Z,0.00
2022-11-13T02:10:16.423Z,0.00
2022-11-13T02:11:16.371Z,0.00
2022-11-13T02:12:16.343Z,0.00
2022-11-13T02:13:16.344Z,0.00
2022-11-13T02:14:16.358Z,0.00
2022-11-13T02:15:16.258Z,0.00
2022-11-13T02:16:16.256Z,0.00
2022-11-13T02:17:16.238Z,0.00
2022-11-13T02:18:16.288Z,0.00
2022-11-13T02:19:16.224Z,0.00
2022-11-13T02:20:16.222Z,0.00
2022-11-13T02:21:16.190Z,0.00
2022-11-13T02:22:16.311Z,0.00
2022-11-13T02:23:16.220Z,0.00
2022-11-13T02:24:16.233Z,0.00
2022-11-13T02:25:16.224Z,0.00
2022-11-13T02:26:16.141Z,0.00
2022-11-13T02:27:16.132Z,0.00
2022-11-13T02:28:16.153Z,0.00
2022-11-13T02:29:16.207Z,0.00
2022-11-13T02:30:17.063Z,0.00
2022-11-13T02:31:16.094Z,0.00
2022-11-13T02:32:16.070Z,0.00
2022-11-13T02:33:16.098Z,0.00
2022-11-13T02:34:16.152Z,0.00
2022-11-13T02:35:16.047Z,0.00
2022-11-13T02:36:16.041Z,0.00
2022-11-13T02:37:16.016Z,0.00
2022-11-13T02:38:16.013Z,0.00
2022-11-13T02:39:16.013Z,0.00
2022-11-13T02:40:15.999Z,0.00
2022-11-13T02:41:15.994Z,0.00
2022-11-13T02:42:16.013Z,0.00
2022-11-13T02:43:16.021Z,0.00
2022-11-13T02:44:15.964Z,0.00
2022-11-13T02:45:16.019Z,0.00
2022-11-13T02:46:15.965Z,0.00
2022-11-13T02:47:15.917Z,0.00
2022-11-13T02:48:15.904Z,0.00
2022-11-13T02:49:15.983Z,0.00
2022-11-13T02:50:15.912Z,0.00
2022-11-13T02:51:15.881Z,0.00
2022-11-13T02:52:15.925Z,0.00
2022-11-13T02:53:15.896Z,0.00
2022-11-13T02:54:17.262Z,0.00
2022-11-13T02:55:15.837Z,0.00
2022-11-13T02:56:15.835Z,0.00
2022-11-13T02:57:15.810Z,0.00
2022-11-13T02:58:15.840Z,0.00
2022-11-13T02:59:15.801Z,0.00
2022-11-13T03:00:15.822Z,0.00
2022-11-13T03:01:15.850Z,0.00
2022-11-13T03:02:15.766Z,0.00
2022-11-13T03:03:29.054Z,0.00
2022-11-13T03:04:15.761Z,0.00
2022-11-13T03:05:15.740Z,0.00
2022-11-13T03:06:15.806Z,0.00
2022-11-13T03:07:15.803Z,0.00
2022-11-13T03:08:15.702Z,0.00
2022-11-13T03:09:15.705Z,0.00
2022-11-13T03:10:15.770Z,0.00
2022-11-13T03:11:15.666Z,0.00
2022-11-13T03:12:15.649Z,0.00
2022-11-13T03:13:15.650Z,0.00
2022-11-13T03:14:15.696Z,0.00
2022-11-13T03:15:15.636Z,0.00
2022-11-13T03:16:15.611Z,0.00
2022-11-13T03:17:15.620Z,0.00
2022-11-13T03:18:15.585Z,0.00
2022-11-13T03:19:15.620Z,0.00
2022-11-13T03:20:15.565Z,0.00
2022-11-13T03:21:15.561Z,0.00
2022-11-13T03:22:15.554Z,0.00
2022-11-13T03:23:15.548Z,0.00
2022-11-13T03:24:15.554Z,0.00
2022-11-13T03:25:15.515Z,0.00
2022-11-13T03:26:15.512Z,0.00
2022-11-13T03:27:15.516Z,0.00
2022-11-13T03:28:15.488Z,0.00
2022-11-13T03:29:15.506Z,0.00
2022-11-13T03:30:15.457Z,0.00
2022-11-13T03:31:15.457Z,0.00
2022-11-13T03:32:15.454Z,0.00
2022-11-13T03:33:15.434Z,0.00
2022-11-13T03:34:15.436Z,0.00
2022-11-13T03:35:15.415Z,0.00
2022-11-13T03:36:15.399Z,0.00
2022-11-13T03:37:15.382Z,0.00
2022-11-13T03:38:15.372Z,0.00
2022-11-13T03:39:15.402Z,0.00
2022-11-13T03:40:15.366Z,0.00
2022-11-13T03:41:15.351Z,0.00
2022-11-13T03:42:15.366Z,0.00
2022-11-13T03:43:15.329Z,0.00
2022-11-13T03:44:15.326Z,0.00
2022-11-13T03:45:15.338Z,0.00
2022-11-13T03:46:15.319Z,0.00
2022-11-13T03:47:15.290Z,0.00
2022-11-13T03:48:15.276Z,0.00
2022-11-13T03:49:15.292Z,0.00
2022-11-13T03:50:15.248Z,0.00
2022-11-13T03:51:15.244Z,0.00
2022-11-13T03:52:15.232Z,0.00
2022-11-13T03:53:15.231Z,0.00
2022-11-13T03:54:15.212Z,0.00
2022-11-13T03:55:15.227Z,0.00
2022-11-13T03:56:15.173Z,0.00
2022-11-13T03:57:15.181Z,0.00
2022-11-13T03:58:15.164Z,0.00
2022-11-13T03:59:15.187Z,0.00
2022-11-13T04:00:15.166Z,0.00
2022-11-13T04:01:15.140Z,0.00
2022-11-13T04:02:15.157Z,0.00
2022-11-13T04:03:15.108Z,0.00
2022-11-13T04:04:15.106Z,0.00
2022-11-13T04:05:19.977Z,0.00
2022-11-13T04:06:15.088Z,0.00
2022-11-13T04:07:15.114Z,0.00
2022-11-13T04:08:15.070Z,0.00
2022-11-13T04:09:15.069Z,0.00
2022-11-13T04:10:15.033Z,0.00
2022-11-13T04:11:15.064Z,0.00
2022-11-13T04:12:15.045Z,0.00
2022-11-13T04:13:15.001Z,0.00
2022-11-13T04:14:15.021Z,0.00
2022-11-13T04:15:15.086Z,0.00
2022-11-13T04:16:14.984Z,0.00
2022-11-13T04:17:14.975Z,0.00
2022-11-13T04:18:15.026Z,0.00
2022-11-13T04:19:14.989Z,0.00
2022-11-13T04:20:14.966Z,0.00
2022-11-13T04:21:14.948Z,0.00
2022-11-13T04:22:14.897Z,0.00
2022-11-13T04:23:14.934Z,0.00
2022-11-13T04:24:14.958Z,0.00
2022-11-13T04:25:14.887Z,0.00
2022-11-13T04:26:14.875Z,0.00
2022-11-13T04:27:14.974Z,0.00
2022-11-13T04:28:14.896Z,0.00
2022-11-13T04:29:14.893Z,0.00
2022-11-13T04:30:14.928Z,0.00
2022-11-13T04:31:14.847Z,0.00
2022-11-13T04:32:14.799Z,0.00
2022-11-13T04:33:14.801Z,0.00
2022-11-13T04:34:14.812Z,0.00
2022-11-13T04:35:14.923Z,0.00
2022-11-13T04:36:14.752Z,0.00
2022-11-13T04:37:14.743Z,0.00
2022-11-13T04:38:14.783Z,0.00
2022-11-13T04:39:14.737Z,0.00
2022-11-13T04:40:14.710Z,0.00
2022-11-13T04:41:14.737Z,0.00
2022-11-13T04:42:14.693Z,0.00
2022-11-13T04:43:14.693Z,0.00
2022-11-13T04:44:14.716Z,0.00
2022-11-13T04:45:14.666Z,0.00
2022-11-13T04:46:14.695Z,0.00
2022-11-13T04:47:14.639Z,0.00
2022-11-13T04:48:14.654Z,0.00
2022-11-13T04:49:14.709Z,0.00
2022-11-13T04:50:14.655Z,0.00
2022-11-13T04:51:14.599Z,0.00
2022-11-13T04:52:14.621Z,0.00
2022-11-13T04:53:14.636Z,0.00
2022-11-13T04:54:14.580Z,0.00
2022-11-13T04:55:14.584Z,0.00
2022-11-13T04:56:14.596Z,0.00
2022-11-13T04:57:14.623Z,0.00
2022-11-13T04:58:14.551Z,0.00
2022-11-13T04:59:14.587Z,0.00
2022-11-13T05:00:14.516Z,0.00
2022-11-13T05:01:14.685Z,0.00
2022-11-13T05:02:14.593Z,0.00
2022-11-13T05:03:14.488Z,0.00
2022-11-13T05:04:14.505Z,0.00
2022-11-13T05:05:14.453Z,0.00
2022-11-13T05:06:14.445Z,0.00
2022-11-13T05:07:14.522Z,0.00
2022-11-13T05:08:14.490Z,0.00
2022-11-13T05:09:14.467Z,0.00
2022-11-13T05:10:14.450Z,0.00
2022-11-13T05:11:14.445Z,0.00
2022-11-13T05:12:14.431Z,0.00
2022-11-13T05:13:14.380Z,0.00
2022-11-13T05:14:14.370Z,0.00
2022-11-13T05:15:14.343Z,0.00
2022-11-13T05:16:14.332Z,0.00
2022-11-13T05:17:14.360Z,0.00
2022-11-13T05:18:14.328Z,0.00
2022-11-13T05:19:14.307Z,0.00
2022-11-13T05:20:14.398Z,0.00
2022-11-13T05:21:14.286Z,0.00
2022-11-13T05:22:14.317Z,0.00
2022-11-13T05:23:14.357Z,0.00
2022-11-13T05:24:14.297Z,0.00
2022-11-13T05:25:14.259Z,0.00
2022-11-13T05:26:14.257Z,0.00
2022-11-13T05:27:17.528Z,0.00
2022-11-13T05:28:14.219Z,0.00
2022-11-13T05:29:14.216Z,0.00
2022-11-13T05:30:14.241Z,0.00
2022-11-13T05:31:14.178Z,0.00
2022-11-13T05:32:14.193Z,0.00
2022-11-13T05:33:14.179Z,0.00
2022-11-13T05:34:14.165Z,0.00
2022-11-13T05:35:14.152Z,0.00
2022-11-13T05:36:14.137Z,0.00
2022-11-13T05:37:14.125Z,0.00
2022-11-13T05:38:14.219Z,0.00
2022-11-13T05:39:14.108Z,0.00
2022-11-13T05:40:14.125Z,0.00
2022-11-13T05:41:14.112Z,0.00
2022-11-13T05:42:14.049Z,0.00
2022-11-13T05:43:14.079Z,0.00
2022-11-13T05:44:14.039Z,0.00
2022-11-13T05:45:14.090Z,0.00
2022-11-13T05:46:14.072Z,0.00
2022-11-13T05:47:14.061Z,0.00
2022-11-13T05:48:14.001Z,0.00
2022-11-13T05:49:14.003Z,0.00
2022-11-13T05:50:13.975Z,0.00
2022-11-13T05:51:14.012Z,0.00
2022-11-13T05:52:13.947Z,0.00
2022-11-13T05:53:14.011Z,0.00
2022-11-13T05:54:13.924Z,0.00
2022-11-13T05:55:13.991Z,0.00
2022-11-13T05:56:13.924Z,1.00
2022-11-13T05:57:13.943Z,0.00
2022-11-13T05:58:13.948Z,0.00
2022-11-13T05:59:13.927Z,0.00
2022-11-13T06:00:13.817Z,2.00
2022-11-13T06:01:13.801Z,1.00
2022-11-13T06:02:13.908Z,0.00
2022-11-13T06:03:13.852Z,0.00
2022-11-13T06:04:13.772Z,1.00
2022-11-13T06:05:13.855Z,1.00
2022-11-13T06:06:13.812Z,5.00
2022-11-13T06:07:13.871Z,2.00
2022-11-13T06:08:13.740Z,1.00
2022-11-13T06:09:13.730Z,1.00
2022-11-13T06:10:13.713Z,2.00
2022-11-13T06:11:13.690Z,2.00
2022-11-13T06:12:13.700Z,4.00
2022-11-13T06:13:13.744Z,2.00
2022-11-13T06:14:13.728Z,6.00
2022-11-13T06:15:13.717Z,8.00
2022-11-13T06:16:13.641Z,8.00
2022-11-13T06:17:13.638Z,7.00
2022-11-13T06:18:13.636Z,11.00
2022-11-13T06:19:13.663Z,15.00
2022-11-13T06:20:13.594Z,19.00
2022-11-13T06:21:13.595Z,20.00
2022-11-13T06:22:13.586Z,24.00
2022-11-13T06:23:13.584Z,29.00
2022-11-13T06:24:13.564Z,31.00
2022-11-13T06:25:13.559Z,28.00
2022-11-13T06:26:13.730Z,28.00
2022-11-13T06:27:13.528Z,31.00
2022-11-13T06:28:13.540Z,32.00
2022-11-13T06:29:13.511Z,38.00
2022-11-13T06:30:19.511Z,41.00
2022-11-13T06:31:14.157Z,43.00
2022-11-13T06:32:13.461Z,51.00
2022-11-13T06:33:14.121Z,44.00
2022-11-13T06:34:13.452Z,44.00
2022-11-13T06:35:13.450Z,60.00
2022-11-13T06:36:13.453Z,60.00
2022-11-13T06:37:13.434Z,59.00
2022-11-13T06:38:13.423Z,63.00
2022-11-13T06:39:13.471Z,65.00
2022-11-13T06:40:13.381Z,69.00
2022-11-13T06:41:13.377Z,71.00
2022-11-13T06:42:13.379Z,76.00
2022-11-13T06:43:13.376Z,87.00
2022-11-13T06:44:13.340Z,93.00
2022-11-13T06:45:13.338Z,91.00
2022-11-13T06:46:13.378Z,100.00
2022-11-13T06:47:13.324Z,103.00
2022-11-13T06:48:13.311Z,101.00
2022-11-13T06:49:13.372Z,104.00
2022-11-13T06:50:13.276Z,112.00
2022-11-13T06:51:13.273Z,126.00
2022-11-13T06:52:13.261Z,137.00
2022-11-13T06:53:13.263Z,138.00
2022-11-13T06:54:13.240Z,126.00
2022-11-13T06:55:13.233Z,130.00
2022-11-13T06:56:13.216Z,132.00
2022-11-13T06:57:13.203Z,144.00
2022-11-13T06:58:13.200Z,151.00
2022-11-13T06:59:13.189Z,155.00
2022-11-13T07:00:13.171Z,161.00
2022-11-13T07:01:13.215Z,163.00
2022-11-13T07:02:13.193Z,172.00
2022-11-13T07:03:13.143Z,166.00
2022-11-13T07:04:13.134Z,175.00
2022-11-13T07:05:13.153Z,183.00
2022-11-13T07:06:13.119Z,189.00
2022-11-13T07:07:13.134Z,203.00
2022-11-13T07:08:13.098Z,210.00
2022-11-13T07:09:13.079Z,213.00
2022-11-13T07:10:13.067Z,194.00
2022-11-13T07:11:13.056Z,189.00
2022-11-13T07:12:13.069Z,199.00
2022-11-13T07:13:13.058Z,187.00
2022-11-13T07:14:13.095Z,196.00
2022-11-13T07:15:13.020Z,213.00
2022-11-13T07:16:17.405Z,254.00
2022-11-13T07:17:13.015Z,251.00
2022-11-13T07:18:13.002Z,220.00
2022-11-13T07:19:12.972Z,204.00
2022-11-13T07:20:12.965Z,207.00
2022-11-13T07:21:12.987Z,221.00
2022-11-13T07:22:13.001Z,236.00
2022-11-13T07:23:12.953Z,239.00
2022-11-13T07:24:16.883Z,241.00
2022-11-13T07:25:12.916Z,244.00
2022-11-13T07:26:12.898Z,258.00
2022-11-13T07:27:12.990Z,284.00
2022-11-13T07:28:12.898Z,281.00
2022-11-13T07:29:12.904Z,285.00
2022-11-13T07:30:12.857Z,302.00
2022-11-13T07:31:12.845Z,294.00
2022-11-13T07:32:12.914Z,319.00
2022-11-13T07:33:12.861Z,338.00
2022-11-13T07:34:12.822Z,339.00
2022-11-13T07:35:12.821Z,345.00
2022-11-13T07:36:12.791Z,314.00
2022-11-13T07:37:12.843Z,319.00
2022-11-13T07:38:12.853Z,335.00
2022-11-13T07:39:12.753Z,327.00
2022-11-13T07:40:12.763Z,326.00
2022-11-13T07:41:12.794Z,361.00
2022-11-13T07:42:12.802Z,391.00
2022-11-13T07:43:12.781Z,404.00
2022-11-13T07:44:21.962Z,404.00
2022-11-13T07:45:12.800Z,376.00
2022-11-13T07:46:12.692Z,366.00
2022-11-13T07:47:12.670Z,367.00
2022-11-13T07:48:12.756Z,361.00
2022-11-13T07:49:12.760Z,379.00
2022-11-13T07:50:12.736Z,416.00
2022-11-13T07:51:12.631Z,394.00
2022-11-13T07:52:12.681Z,386.00
2022-11-13T07:53:12.604Z,389.00
2022-11-13T07:54:12.664Z,424.00
2022-11-13T07:55:12.613Z,435.00
2022-11-13T07:56:12.608Z,429.00
2022-11-13T07:57:12.611Z,434.00
2022-11-13T07:58:12.641Z,492.00
2022-11-13T07:59:12.548Z,489.00
2022-11-13T08:00:12.607Z,487.00
2022-11-13T08:01:12.660Z,537.00
2022-11-13T08:02:12.598Z,492.00
2022-11-13T08:03:12.525Z,576.00
2022-11-13T08:04:12.517Z,580.00
2022-11-13T08:05:12.522Z,594.00
2022-11-13T08:06:12.474Z,565.00
2022-11-13T08:07:12.521Z,638.00
2022-11-13T08:08:12.487Z,609.00
2022-11-13T08:09:12.453Z,584.00
2022-11-13T08:10:12.495Z,648.00
2022-11-13T08:11:12.471Z,659.00
2022-11-13T08:12:12.479Z,636.00
2022-11-13T08:13:12.501Z,666.00
2022-11-13T08:14:12.477Z,672.00
2022-11-13T08:15:13.682Z,619.00
2022-11-13T08:16:12.389Z,634.00
2022-11-13T08:17:12.383Z,626.00
2022-11-13T08:18:12.423Z,625.00
2022-11-13T08:19:12.408Z,627.00
2022-11-13T08:20:12.324Z,673.00
2022-11-13T08:21:15.122Z,652.00
2022-11-13T08:22:12.345Z,628.00
2022-11-13T08:23:12.330Z,696.00
2022-11-13T08:24:12.387Z,671.00
2022-11-13T08:25:12.281Z,634.00
2022-11-13T08:26:12.274Z,657.00
2022-11-13T08:27:12.254Z,680.00
2022-11-13T08:28:13.421Z,737.00
2022-11-13T08:29:12.233Z,831.00
2022-11-13T08:30:12.221Z,860.00
2022-11-13T08:31:12.209Z,868.00
2022-11-13T08:32:12.218Z,804.00
2022-11-13T08:33:12.201Z,789.00
2022-11-13T08:34:12.223Z,806.00
2022-11-13T08:35:17.357Z,785.00
2022-11-13T08:36:12.162Z,733.00
2022-11-13T08:37:12.150Z,783.00
2022-11-13T08:38:12.170Z,804.00
2022-11-13T08:39:12.131Z,784.00
2022-11-13T08:40:12.156Z,773.00
2022-11-13T08:41:12.107Z,774.00
2022-11-13T08:42:12.168Z,770.00
2022-11-13T08:43:12.083Z,787.00
2022-11-13T08:44:12.074Z,824.00
2022-11-13T08:45:12.058Z,857.00
2022-11-13T08:46:12.051Z,842.00
2022-11-13T08:47:12.044Z,843.00
2022-11-13T08:48:12.094Z,847.00
2022-11-13T08:49:12.024Z,828.00
2022-11-13T08:50:12.032Z,715.00
2022-11-13T08:51:12.146Z,889.00
2022-11-13T08:52:12.009Z,1144.00
2022-11-13T08:53:11.990Z,1015.00
2022-11-13T08:54:11.973Z,1079.00
2022-11-13T08:55:11.949Z,1133.00
2022-11-13T08:56:12.043Z,1100.00
2022-11-13T08:57:11.957Z,1050.00
2022-11-13T08:58:11.977Z,1159.00
2022-11-13T08:59:11.916Z,1071.00
2022-11-13T09:00:11.900Z,1035.00
2022-11-13T09:01:11.917Z,1031.00
2022-11-13T09:02:11.900Z,1024.00
2022-11-13T09:03:11.862Z,1005.00
2022-11-13T09:04:11.951Z,988.00
2022-11-13T09:05:11.855Z,966.00
2022-11-13T09:06:11.878Z,985.00
2022-11-13T09:07:12.006Z,1003.00
2022-11-13T09:08:11.926Z,964.00
2022-11-13T09:09:11.800Z,999.00
2022-11-13T09:10:11.833Z,1042.00
2022-11-13T09:11:11.803Z,1068.00
2022-11-13T09:12:11.799Z,1100.00
2022-11-13T09:13:11.761Z,1067.00
2022-11-13T09:14:11.753Z,1102.00
2022-11-13T09:15:11.766Z,1061.00
2022-11-13T09:16:11.741Z,1057.00
2022-11-13T09:17:11.788Z,1072.00
2022-11-13T09:18:11.713Z,1050.00
2022-11-13T09:19:11.693Z,1048.00
2022-11-13T09:20:14.014Z,1049.00
2022-11-13T09:21:11.702Z,1071.00
2022-11-13T09:22:11.700Z,1093.00
2022-11-13T09:23:11.648Z,1104.00
2022-11-13T09:24:11.649Z,1129.00
2022-11-13T09:25:11.636Z,1162.00
2022-11-13T09:26:11.648Z,1163.00
2022-11-13T09:27:11.627Z,1142.00
2022-11-13T09:28:11.618Z,1128.00
2022-11-13T09:29:11.634Z,1113.00
2022-11-13T09:30:11.590Z,1134.00
2022-11-13T09:31:11.606Z,1112.00
2022-11-13T09:32:11.763Z,1136.00
2022-11-13T09:33:11.548Z,1177.00
2022-11-13T09:34:11.537Z,1246.00
2022-11-13T09:35:11.537Z,1165.00
2022-11-13T09:36:11.526Z,1205.00
2022-11-13T09:37:11.514Z,1234.00
2022-11-13T09:38:11.863Z,1256.00
2022-11-13T09:39:11.494Z,1241.00
2022-11-13T09:40:11.497Z,1249.00
2022-11-13T09:41:11.479Z,1318.00
2022-11-13T09:42:11.459Z,1428.00
2022-11-13T09:43:11.455Z,1528.00
2022-11-13T09:44:11.473Z,1629.00
2022-11-13T09:45:11.416Z,1582.00
2022-11-13T09:46:11.444Z,1547.00
2022-11-13T09:47:11.397Z,1609.00
2022-11-13T09:48:11.404Z,1708.00
2022-11-13T09:49:11.378Z,1609.00
2022-11-13T09:50:11.412Z,1823.00
2022-11-13T09:51:11.372Z,1906.00
2022-11-13T09:52:11.350Z,2038.00
2022-11-13T09:53:11.353Z,1886.00
2022-11-13T09:54:11.351Z,1820.00
2022-11-13T09:55:11.331Z,1865.00
2022-11-13T09:56:11.318Z,1737.00
2022-11-13T09:57:11.303Z,1601.00
2022-11-13T09:58:11.285Z,1715.00
2022-11-13T09:59:11.284Z,1903.00
2022-11-13T10:00:11.281Z,1938.00
2022-11-13T10:01:11.280Z,1721.00
2022-11-13T10:02:11.242Z,1636.00
2022-11-13T10:03:11.229Z,1874.00
2022-11-13T10:04:14.286Z,1938.00
2022-11-13T10:05:11.210Z,1888.00
2022-11-13T10:06:11.227Z,1747.00
2022-11-13T10:07:11.225Z,1795.00
2022-11-13T10:08:11.175Z,1899.00
2022-11-13T10:09:11.184Z,1862.00
2022-11-13T10:10:11.157Z,1803.00
2022-11-13T10:11:11.140Z,1879.00
2022-11-13T10:12:11.159Z,1950.00
2022-11-13T10:13:11.133Z,1984.00
2022-11-13T10:14:11.123Z,1903.00
2022-11-13T10:15:11.094Z,1946.00
2022-11-13T10:16:11.102Z,1989.00
2022-11-13T10:17:11.115Z,2123.00
2022-11-13T10:18:11.081Z,1987.00
2022-11-13T10:19:11.058Z,2037.00
2022-11-13T10:20:11.058Z,2031.00
2022-11-13T10:21:11.035Z,1953.00
2022-11-13T10:22:32.330Z,2020.00
2022-11-13T10:23:11.025Z,1978.00
2022-11-13T10:24:14.284Z,2188.00
2022-11-13T10:25:10.989Z,2283.00
2022-11-13T10:26:11.019Z,2458.00
2022-11-13T10:27:10.969Z,2305.00
2022-11-13T10:28:35.012Z,2452.00
2022-11-13T10:29:11.096Z,2828.00
2022-11-13T10:30:10.949Z,2853.00
2022-11-13T10:31:10.940Z,2626.00
2022-11-13T10:32:10.923Z,2284.00
2022-11-13T10:33:10.911Z,2332.00
2022-11-13T10:34:10.902Z,2504.00
2022-11-13T10:35:10.893Z,2551.00
2022-11-13T10:36:10.901Z,2790.00
2022-11-13T10:37:10.879Z,2523.00
2022-11-13T10:38:10.863Z,2520.00
2022-11-13T10:39:10.870Z,2440.00
2022-11-13T10:40:10.867Z,2549.00
2022-11-13T10:41:10.833Z,2845.00
2022-11-13T10:42:10.820Z,2577.00
2022-11-13T10:43:10.799Z,2480.00
2022-11-13T10:44:10.792Z,2397.00
2022-11-13T10:45:12.457Z,2338.00
2022-11-13T10:46:10.815Z,2256.00
2022-11-13T10:47:10.755Z,2668.00
2022-11-13T10:48:10.749Z,2242.00
2022-11-13T10:49:10.765Z,2171.00
2022-11-13T10:50:10.791Z,2189.00
2022-11-13T10:51:10.723Z,2144.00
2022-11-13T10:52:11.413Z,2147.00
2022-11-13T10:53:10.698Z,2184.00
2022-11-13T10:54:10.691Z,2199.00
2022-11-13T10:55:10.670Z,2057.00
2022-11-13T10:56:10.678Z,2006.00
2022-11-13T10:57:10.680Z,2112.00
2022-11-13T10:58:10.675Z,2211.00
2022-11-13T10:59:10.641Z,2272.00
2022-11-13T11:00:10.641Z,2263.00
2022-11-13T11:01:10.701Z,2282.00
2022-11-13T11:02:10.630Z,2271.00
2022-11-13T11:03:10.606Z,2292.00
2022-11-13T11:04:10.632Z,2453.00
2022-11-13T11:05:10.563Z,2477.00
2022-11-13T11:06:10.576Z,2526.00
2022-11-13T11:07:20.340Z,2713.00
2022-11-13T11:08:10.753Z,2673.00
2022-11-13T11:09:10.639Z,2541.00
2022-11-13T11:10:10.531Z,2554.00
2022-11-13T11:11:10.518Z,2566.00
2022-11-13T11:12:10.514Z,2581.00
2022-11-13T11:13:10.575Z,2744.00
2022-11-13T11:14:10.471Z,2979.00
2022-11-13T11:15:10.469Z,3036.00
2022-11-13T11:16:10.647Z,3058.00
2022-11-13T11:17:10.461Z,2927.00
2022-11-13T11:18:10.603Z,2966.00
2022-11-13T11:19:10.607Z,2987.00
2022-11-13T11:20:10.401Z,2977.00
2022-11-13T11:21:10.402Z,2710.00
2022-11-13T11:22:10.685Z,2672.00
2022-11-13T11:23:10.385Z,3517.00
2022-11-13T11:24:10.375Z,3271.00
2022-11-13T11:25:10.353Z,3236.00
2022-11-13T11:26:10.364Z,3239.00
2022-11-13T11:27:10.349Z,3834.00
2022-11-13T11:28:10.319Z,4314.00
2022-11-13T11:29:10.314Z,4349.00
2022-11-13T11:30:10.542Z,4099.00
2022-11-13T11:31:10.306Z,4131.00
2022-11-13T11:32:10.586Z,4293.00
2022-11-13T11:33:10.271Z,3855.00
2022-11-13T11:34:10.257Z,3813.00
2022-11-13T11:35:10.263Z,4165.00
2022-11-13T11:36:10.562Z,3838.00
2022-11-13T11:37:10.246Z,3789.00
2022-11-13T11:38:10.218Z,4093.00
2022-11-13T11:39:10.501Z,3709.00
2022-11-13T11:40:10.203Z,4367.00
2022-11-13T11:41:15.981Z,3944.00
2022-11-13T11:42:10.205Z,4079.00
2022-11-13T11:43:10.177Z,4057.00
2022-11-13T11:44:10.159Z,4507.00
2022-11-13T11:45:10.143Z,4990.00
2022-11-13T11:46:10.126Z,4889.00
2022-11-13T11:47:10.152Z,5223.00
2022-11-13T11:48:10.125Z,4943.00
2022-11-13T11:49:10.105Z,4132.00
2022-11-13T11:50:10.089Z,2969.00
2022-11-13T11:51:10.095Z,3500.00
2022-11-13T11:52:10.063Z,3903.00
2022-11-13T11:53:10.127Z,3117.00
2022-11-13T11:54:10.060Z,2784.00
2022-11-13T11:55:10.035Z,3789.00
2022-11-13T11:56:10.055Z,2945.00
2022-11-13T11:57:10.014Z,3428.00
2022-11-13T11:58:10.032Z,3856.00
2022-11-13T11:59:10.170Z,3331.00
2022-11-13T12:00:10.002Z,3305.00
2022-11-13T12:01:10.081Z,3539.00
2022-11-13T12:02:10.071Z,3395.00
2022-11-13T12:03:10.004Z,3585.00
2022-11-13T12:04:09.937Z,2723.00
2022-11-13T12:05:10.373Z,3760.00
2022-11-13T12:06:09.929Z,2456.00
2022-11-13T12:07:10.009Z,3929.00
2022-11-13T12:08:09.911Z,3754.00
2022-11-13T12:09:09.906Z,3928.00
2022-11-13T12:10:09.997Z,3665.00
2022-11-13T12:11:09.875Z,3237.00
2022-11-13T12:12:09.854Z,3313.00
2022-11-13T12:13:09.896Z,3165.00
2022-11-13T12:14:09.832Z,3246.00
2022-11-13T12:15:09.825Z,3141.00
2022-11-13T12:16:09.826Z,2943.00
2022-11-13T12:17:16.906Z,3092.00
2022-11-13T12:18:09.883Z,3180.00
2022-11-13T12:19:09.823Z,3186.00
2022-11-13T12:20:09.771Z,3040.00
2022-11-13T12:21:09.845Z,3096.00
2022-11-13T12:22:09.778Z,2997.00
2022-11-13T12:23:09.752Z,2888.00
2022-11-13T12:24:09.740Z,2704.00
2022-11-13T12:25:09.790Z,2648.00
2022-11-13T12:26:09.808Z,2660.00
2022-11-13T12:27:09.701Z,2645.00
2022-11-13T12:28:09.733Z,2576.00
2022-11-13T12:29:09.690Z,2550.00
2022-11-13T12:30:09.674Z,2559.00
2022-11-13T12:31:16.698Z,2552.00
2022-11-13T12:32:10.834Z,2501.00
2022-11-13T12:33:11.244Z,2461.00
2022-11-13T12:34:09.621Z,2440.00
2022-11-13T12:35:09.838Z,2431.00
2022-11-13T12:36:09.610Z,2417.00
2022-11-13T12:37:09.607Z,2406.00
2022-11-13T12:38:09.604Z,2391.00
2022-11-13T12:39:09.622Z,2350.00
2022-11-13T12:40:09.656Z,2333.00
2022-11-13T12:41:09.640Z,2336.00
2022-11-13T12:42:09.537Z,2340.00
2022-11-13T12:43:09.523Z,2348.00
2022-11-13T12:44:09.524Z,2370.00
2022-11-13T12:45:09.524Z,2387.00